createdAt,value
2019-02-23T00:00:38.590Z,52.43
2019-02-23T00:03:07.840Z,44.87
2019-02-23T00:05:37.073Z,51.97
2019-02-23T00:08:06.343Z,48.80
2019-02-23T00:10:35.586Z,46.93
2019-02-23T00:13:04.859Z,46.27
2019-02-23T00:15:34.148Z,44.73
2019-02-23T00:18:03.465Z,49.13
2019-02-23T00:20:32.693Z,40.77
2019-02-23T00:23:02.103Z,45.53
2019-02-23T00:25:31.624Z,51.77
2019-02-23T00:28:00.918Z,50.63
2019-02-23T00:30:30.181Z,49.60
2019-02-23T00:32:59.447Z,48.73
2019-02-23T00:35:28.862Z,49.90
2019-02-23T00:37:58.099Z,46.83
2019-02-23T00:40:27.359Z,53.23
2019-02-23T00:42:56.655Z,48.60
2019-02-23T00:45:25.923Z,52.13
2019-02-23T00:47:55.245Z,46.43
2019-02-23T00:50:24.531Z,41.83
2019-02-23T00:52:53.851Z,48.77
2019-02-23T00:55:23.083Z,47.20
2019-02-23T00:57:52.348Z,49.57
2019-02-23T01:00:21.706Z,51.47
2019-02-23T01:02:51.034Z,48.13
2019-02-23T01:05:20.289Z,51.93
2019-02-23T01:07:49.579Z,46.73
2019-02-23T01:10:19.650Z,49.63
2019-02-23T01:12:49.433Z,46.93
2019-02-23T01:15:18.775Z,47.80
2019-02-23T01:17:48.200Z,52.67
2019-02-23T01:20:17.475Z,51.53
2019-02-23T01:22:46.746Z,49.23
2019-02-23T01:25:16.299Z,54.33
2019-02-23T01:27:45.725Z,47.30
2019-02-23T01:30:15.165Z,48.93
2019-02-23T01:32:44.573Z,52.87
2019-02-23T01:35:13.959Z,53.07
2019-02-23T01:37:43.339Z,57.83
2019-02-23T01:40:12.689Z,56.60
2019-02-23T01:42:42.058Z,57.40
2019-02-23T01:45:11.374Z,57.23
2019-02-23T01:47:40.829Z,61.43
2019-02-23T01:50:10.743Z,57.07
2019-02-23T01:52:40.055Z,53.43
2019-02-23T01:55:09.628Z,48.33
2019-02-23T01:57:39.023Z,48.00
2019-02-23T02:00:13.006Z,56.47
2019-02-23T02:02:42.967Z,48.47
2019-02-23T02:05:12.688Z,48.60
2019-02-23T02:07:42.055Z,58.93
2019-02-23T02:10:11.784Z,53.60
2019-02-23T02:12:41.161Z,54.03
2019-02-23T02:15:12.685Z,50.43
2019-02-23T02:17:42.175Z,51.80
2019-02-23T02:20:11.747Z,54.90
2019-02-23T02:22:41.126Z,48.60
2019-02-23T02:25:10.365Z,58.00
2019-02-23T02:27:39.655Z,52.27
2019-02-23T02:30:10.954Z,54.93
2019-02-23T02:32:40.197Z,56.33
2019-02-23T02:35:10.741Z,56.50
2019-02-23T02:37:40.093Z,48.10
2019-02-23T02:40:09.861Z,56.23
2019-02-23T02:42:39.222Z,55.20
2019-02-23T02:45:10.520Z,58.87
2019-02-23T02:47:39.900Z,52.70
2019-02-23T02:50:23.271Z,53.17
2019-02-23T02:52:41.306Z,59.77
2019-02-23T02:55:10.737Z,56.87
2019-02-23T02:57:40.097Z,57.90
2019-02-23T03:00:11.914Z,54.20
2019-02-23T03:02:41.232Z,60.63
2019-02-23T03:05:10.905Z,57.67
2019-02-23T03:07:40.154Z,57.53
2019-02-23T03:10:09.513Z,50.67
2019-02-23T03:12:38.762Z,62.43
2019-02-23T03:15:08.287Z,58.30
2019-02-23T03:17:37.551Z,54.03
2019-02-23T03:20:08.461Z,57.17
2019-02-23T03:22:37.683Z,58.77
2019-02-23T03:25:07.701Z,53.17
2019-02-23T03:27:36.975Z,57.63
2019-02-23T03:30:09.184Z,53.57
2019-02-23T03:32:38.459Z,55.33
2019-02-23T03:35:07.923Z,55.20
2019-02-23T03:37:37.145Z,55.43
2019-02-23T03:40:08.048Z,57.83
2019-02-23T03:42:37.619Z,53.23
2019-02-23T03:45:07.327Z,55.67
2019-02-23T03:47:36.527Z,59.43
2019-02-23T03:50:07.357Z,53.07
2019-02-23T03:52:36.531Z,63.53
2019-02-23T03:55:06.278Z,63.07
2019-02-23T03:57:35.468Z,55.50
2019-02-23T04:00:06.565Z,53.90
2019-02-23T04:02:35.758Z,56.90
2019-02-23T04:05:05.708Z,56.20
2019-02-23T04:07:34.881Z,59.27
2019-02-23T04:10:05.619Z,54.03
2019-02-23T04:12:34.829Z,53.90
2019-02-23T04:15:04.823Z,60.03
2019-02-23T04:17:33.920Z,54.30
2019-02-23T04:20:03.168Z,57.43
2019-02-23T04:22:32.273Z,57.97
2019-02-23T04:25:01.562Z,55.57
2019-02-23T04:27:30.655Z,56.93
2019-02-23T04:29:59.815Z,53.47
2019-02-23T04:32:28.950Z,57.83
2019-02-23T04:34:58.228Z,52.37
2019-02-23T04:37:27.334Z,57.90
2019-02-23T04:39:56.539Z,56.13
2019-02-23T04:42:25.724Z,56.93
2019-02-23T04:44:54.853Z,53.07
2019-02-23T04:47:23.958Z,58.10
2019-02-23T04:49:54.582Z,55.17
2019-02-23T04:52:23.767Z,49.93
2019-02-23T04:54:52.983Z,58.27
2019-02-23T04:57:22.182Z,54.53
2019-02-23T04:59:51.415Z,46.97
2019-02-23T05:02:20.608Z,53.83
2019-02-23T05:04:49.843Z,49.50
2019-02-23T05:07:19.102Z,46.33
2019-02-23T05:09:48.282Z,51.60
2019-02-23T05:12:17.495Z,48.80
2019-02-23T05:14:46.764Z,51.17
2019-02-23T05:17:15.979Z,50.30
2019-02-23T05:19:45.316Z,51.80
2019-02-23T05:22:14.622Z,48.40
2019-02-23T05:24:43.859Z,46.80
2019-02-23T05:27:13.097Z,46.87
2019-02-23T05:29:42.343Z,48.07
2019-02-23T05:32:11.589Z,54.30
2019-02-23T05:34:40.930Z,46.80
2019-02-23T05:37:10.116Z,48.20
2019-02-23T05:39:39.371Z,47.17
2019-02-23T05:42:08.709Z,49.33
2019-02-23T05:44:37.950Z,49.80
2019-02-23T05:47:07.178Z,52.63
2019-02-23T05:49:37.104Z,57.30
2019-02-23T05:52:06.558Z,49.70
2019-02-23T05:54:35.870Z,49.27
2019-02-23T05:57:05.085Z,53.03
2019-02-23T05:59:34.240Z,53.03
2019-02-23T06:02:03.483Z,48.40
2019-02-23T06:04:32.833Z,50.23
2019-02-23T06:07:02.080Z,47.10
2019-02-23T06:09:31.311Z,51.20
2019-02-23T06:12:00.566Z,47.03
2019-02-23T06:14:29.769Z,53.33
2019-02-23T06:16:59.052Z,55.33
2019-02-23T06:19:28.298Z,50.73
2019-02-23T06:21:57.578Z,51.20
2019-02-23T06:24:26.974Z,54.67
2019-02-23T06:26:56.138Z,48.50
2019-02-23T06:29:25.314Z,50.37
2019-02-23T06:31:54.574Z,51.13
2019-02-23T06:34:23.823Z,49.20
2019-02-23T06:36:53.136Z,54.93
2019-02-23T06:39:22.408Z,50.93
2019-02-23T06:41:51.655Z,51.93
2019-02-23T06:44:20.982Z,45.40
2019-02-23T06:46:50.249Z,52.07
2019-02-23T06:49:19.486Z,49.77
2019-02-23T06:51:48.834Z,48.90
2019-02-23T06:54:18.045Z,49.83
2019-02-23T06:56:47.618Z,43.87
2019-02-23T06:59:16.860Z,42.83
2019-02-23T07:01:46.138Z,45.00
2019-02-23T07:04:15.366Z,53.83
2019-02-23T07:06:44.657Z,45.00
2019-02-23T07:09:14.345Z,48.13
2019-02-23T07:11:43.589Z,46.13
2019-02-23T07:14:13.043Z,42.30
2019-02-23T07:16:42.266Z,40.93
2019-02-23T07:19:11.598Z,47.17
2019-02-23T07:21:40.890Z,39.20
2019-02-23T07:24:10.088Z,40.93
2019-02-23T07:26:39.359Z,38.33
2019-02-23T07:29:08.612Z,42.70
2019-02-23T07:31:37.859Z,41.90
2019-02-23T07:34:07.134Z,37.10
2019-02-23T07:36:36.401Z,36.80
2019-02-23T07:39:06.467Z,41.27
2019-02-23T07:41:35.711Z,40.57
2019-02-23T07:44:05.029Z,39.73
2019-02-23T07:46:34.275Z,39.63
2019-02-23T07:49:03.571Z,35.33
2019-02-23T07:51:32.919Z,35.47
2019-02-23T07:54:02.351Z,36.57
2019-02-23T07:56:31.701Z,39.20
2019-02-23T07:59:00.941Z,40.83
2019-02-23T08:01:30.172Z,31.50
2019-02-23T08:03:59.450Z,34.43
2019-02-23T08:06:28.728Z,37.17
2019-02-23T08:08:57.887Z,37.23
2019-02-23T08:11:27.171Z,32.93
2019-02-23T08:13:56.443Z,32.53
2019-02-23T08:16:25.669Z,35.03
2019-02-23T08:18:54.833Z,34.03
2019-02-23T08:21:24.158Z,31.27
2019-02-23T08:23:53.425Z,35.50
2019-02-23T08:26:22.699Z,35.83
2019-02-23T08:28:51.943Z,33.60
2019-02-23T08:31:21.182Z,31.50
2019-02-23T08:33:50.439Z,34.47
2019-02-23T08:36:19.722Z,37.07
2019-02-23T08:38:48.971Z,33.70
2019-02-23T08:41:18.226Z,30.83
2019-02-23T08:43:47.434Z,35.00
2019-02-23T08:46:16.764Z,32.27
2019-02-23T08:48:46.114Z,35.47
2019-02-23T08:51:15.267Z,34.47
2019-02-23T08:53:44.579Z,33.17
2019-02-23T08:56:13.831Z,32.97
2019-02-23T08:58:43.150Z,27.43
2019-02-23T09:01:12.452Z,35.00
2019-02-23T09:03:41.765Z,30.63
2019-02-23T09:06:11.110Z,28.47
2019-02-23T09:08:40.335Z,31.57
2019-02-23T09:11:09.624Z,31.27
2019-02-23T09:13:38.875Z,29.43
2019-02-23T09:16:08.065Z,30.33
2019-02-23T09:18:37.333Z,31.60
2019-02-23T09:21:06.594Z,27.33
2019-02-23T09:23:35.862Z,28.47
2019-02-23T09:26:05.166Z,29.57
2019-02-23T09:28:34.385Z,30.50
2019-02-23T09:31:03.718Z,26.13
2019-02-23T09:33:32.970Z,29.10
2019-02-23T09:36:02.293Z,26.63
2019-02-23T09:38:31.530Z,27.57
2019-02-23T09:41:00.814Z,27.67
2019-02-23T09:43:30.053Z,31.90
2019-02-23T09:45:59.319Z,26.90
2019-02-23T09:48:28.588Z,29.53
2019-02-23T09:51:01.098Z,31.43
2019-02-23T09:53:30.400Z,31.63
2019-02-23T09:55:59.635Z,25.77
2019-02-23T09:58:31.177Z,27.33
2019-02-23T10:00:59.811Z,29.23
2019-02-23T10:03:29.053Z,28.13
2019-02-23T10:05:58.322Z,27.23
2019-02-23T10:08:27.560Z,24.93
2019-02-23T10:10:57.623Z,24.90
2019-02-23T10:13:27.056Z,29.77
2019-02-23T10:15:56.368Z,28.90
2019-02-23T10:18:25.620Z,32.60
2019-02-23T10:20:54.876Z,30.80
2019-02-23T10:23:24.106Z,30.23
2019-02-23T10:25:53.434Z,28.83
2019-02-23T10:28:22.667Z,27.17
2019-02-23T10:30:51.932Z,30.93
2019-02-23T10:33:21.189Z,30.03
2019-02-23T10:35:50.422Z,25.57
2019-02-23T10:38:19.698Z,31.37
2019-02-23T10:40:48.967Z,29.63
2019-02-23T10:43:18.192Z,25.27
2019-02-23T10:45:47.463Z,26.80
2019-02-23T10:48:16.702Z,29.47
2019-02-23T10:50:45.979Z,29.73
2019-02-23T10:53:15.316Z,25.77
2019-02-23T10:55:44.615Z,32.37
2019-02-23T10:58:13.880Z,28.40
2019-02-23T11:00:43.158Z,25.83
2019-02-23T11:03:12.287Z,26.70
2019-02-23T11:05:41.521Z,30.63
2019-02-23T11:08:10.881Z,26.93
2019-02-23T11:10:40.265Z,29.20
2019-02-23T11:13:09.613Z,27.43
2019-02-23T11:15:38.893Z,28.27
2019-02-23T11:18:08.063Z,23.77
2019-02-23T11:20:37.579Z,27.50
2019-02-23T11:23:06.977Z,24.63
2019-02-23T11:25:36.281Z,29.87
2019-02-23T11:28:05.582Z,28.07
2019-02-23T11:30:34.941Z,26.47
2019-02-23T11:33:04.240Z,26.40
2019-02-23T11:35:33.573Z,25.17
2019-02-23T11:38:02.773Z,27.93
2019-02-23T11:40:32.015Z,25.20
2019-02-23T11:43:01.258Z,23.23
2019-02-23T11:45:31.141Z,25.60
2019-02-23T11:48:00.532Z,24.63
2019-02-23T11:50:29.809Z,22.73
2019-02-23T11:52:59.108Z,23.20
2019-02-23T11:55:28.316Z,26.37
2019-02-23T11:57:57.587Z,19.33
2019-02-23T12:00:26.881Z,20.73
2019-02-23T12:02:56.312Z,19.67
2019-02-23T12:05:25.573Z,22.70
2019-02-23T12:07:54.840Z,20.93
2019-02-23T12:10:24.187Z,21.93
2019-02-23T12:12:53.619Z,23.87
2019-02-23T12:15:22.884Z,23.87
2019-02-23T12:17:54.949Z,24.27
2019-02-23T12:20:24.234Z,22.07
2019-02-23T12:22:53.478Z,23.97
2019-02-23T12:25:22.721Z,25.43
2019-02-23T12:27:52.038Z,20.33
2019-02-23T12:30:21.293Z,28.57
2019-02-23T12:32:50.570Z,22.47
2019-02-23T12:35:28.442Z,23.07
2019-02-23T12:38:00.802Z,21.43
2019-02-23T12:40:29.997Z,25.43
2019-02-23T12:42:59.350Z,29.40
2019-02-23T12:45:28.595Z,23.07
2019-02-23T12:47:57.844Z,23.27
2019-02-23T12:50:27.098Z,27.40
2019-02-23T12:52:56.434Z,24.13
2019-02-23T12:55:25.779Z,21.77
2019-02-23T12:57:55.107Z,22.40
2019-02-23T13:00:24.934Z,24.33
2019-02-23T13:02:56.030Z,22.27
2019-02-23T13:05:25.278Z,23.70
2019-02-23T13:07:54.604Z,22.53
2019-02-23T13:10:24.034Z,23.23
2019-02-23T13:12:59.330Z,19.53
2019-02-23T13:15:37.476Z,20.60
2019-02-23T13:18:22.112Z,22.97
2019-02-23T13:21:00.523Z,22.50
2019-02-23T13:23:44.697Z,24.03
2019-02-23T13:26:22.917Z,24.37
2019-02-23T13:29:00.813Z,23.47
2019-02-23T13:31:37.860Z,23.40
2019-02-23T13:34:15.906Z,23.87
2019-02-23T13:37:01.674Z,23.73
2019-02-23T13:39:36.436Z,22.67
2019-02-23T13:42:37.881Z,21.13
2019-02-23T13:45:31.257Z,26.27
2019-02-23T13:48:18.588Z,21.77
2019-02-23T13:50:52.644Z,23.67
2019-02-23T13:53:33.896Z,24.10
2019-02-23T13:56:14.549Z,19.07
2019-02-23T13:58:49.207Z,21.40
2019-02-23T14:01:43.793Z,23.33
2019-02-23T14:04:47.963Z,21.53
2019-02-23T14:07:27.809Z,17.23
2019-02-23T14:10:16.603Z,20.53
2019-02-23T14:13:23.667Z,19.43
2019-02-23T14:16:01.979Z,19.03
2019-02-23T14:18:58.000Z,20.50
2019-02-23T14:21:50.937Z,21.70
2019-02-23T14:24:50.096Z,20.10
2019-02-23T14:27:40.430Z,19.50
2019-02-23T14:30:32.364Z,19.97
2019-02-23T14:33:30.086Z,20.00
2019-02-23T14:36:10.926Z,21.87
2019-02-23T14:38:49.366Z,24.33
2019-02-23T14:41:38.040Z,22.67
2019-02-23T14:44:17.119Z,19.97
2019-02-23T14:46:57.951Z,18.50
2019-02-23T14:49:50.155Z,18.80
2019-02-23T14:52:34.348Z,18.13
2019-02-23T14:55:22.903Z,21.30
2019-02-23T14:58:20.356Z,23.07
2019-02-23T15:01:13.644Z,23.30
2019-02-23T15:04:00.595Z,20.80
2019-02-23T15:06:55.637Z,21.07
2019-02-23T15:09:42.494Z,23.73
2019-02-23T15:12:20.411Z,22.30
2019-02-23T15:15:04.380Z,22.00
2019-02-23T15:17:51.896Z,23.87
2019-02-23T15:20:42.035Z,22.63
2019-02-23T15:23:26.350Z,22.93
2019-02-23T15:26:10.443Z,23.20
2019-02-23T15:28:51.371Z,21.20
2019-02-23T15:31:46.230Z,25.70
2019-02-23T15:34:36.142Z,22.70
2019-02-23T15:37:30.951Z,23.63
2019-02-23T15:40:23.576Z,22.70
2019-02-23T15:43:07.641Z,25.93
2019-02-23T15:45:56.482Z,23.03
2019-02-23T15:48:34.421Z,23.40
2019-02-23T15:51:03.882Z,25.33
2019-02-23T15:53:33.240Z,24.63
2019-02-23T15:56:02.535Z,23.47
2019-02-23T15:58:32.041Z,24.80
2019-02-23T16:01:01.383Z,25.73
2019-02-23T16:03:30.636Z,26.87
2019-02-23T16:05:59.973Z,25.67
2019-02-23T16:08:29.312Z,26.57
2019-02-23T16:10:58.603Z,26.80
2019-02-23T16:13:27.875Z,25.70
2019-02-23T16:15:57.275Z,25.50
2019-02-23T16:18:26.611Z,23.63
2019-02-23T16:20:55.935Z,26.43
2019-02-23T16:23:34.979Z,25.27
2019-02-23T16:25:56.143Z,24.43
2019-02-23T16:28:25.383Z,26.30
2019-02-23T16:30:55.703Z,24.67
2019-02-23T16:33:25.019Z,24.23
2019-02-23T16:35:54.257Z,27.70
2019-02-23T16:38:23.499Z,23.83
2019-02-23T16:40:52.815Z,26.83
2019-02-23T16:43:22.081Z,23.83
2019-02-23T16:45:51.325Z,22.90
2019-02-23T16:48:20.674Z,24.50
2019-02-23T16:50:49.924Z,22.83
2019-02-23T16:53:19.138Z,22.30
2019-02-23T16:55:51.114Z,22.80
2019-02-23T16:58:19.522Z,22.97
2019-02-23T17:00:48.768Z,24.30
2019-02-23T17:03:18.480Z,25.37
2019-02-23T17:05:47.743Z,23.60
2019-02-23T17:08:17.043Z,22.47
2019-02-23T17:10:46.446Z,23.00
2019-02-23T17:13:20.112Z,19.67
2019-02-23T17:15:49.349Z,22.70
2019-02-23T17:18:18.642Z,24.30
2019-02-23T17:20:47.909Z,23.13
2019-02-23T17:23:17.218Z,20.90
2019-02-23T17:25:46.594Z,25.00
2019-02-23T17:28:15.859Z,22.87
2019-02-23T17:30:45.126Z,23.60
2019-02-23T17:33:14.411Z,23.23
2019-02-23T17:35:43.738Z,24.07
2019-02-23T17:38:16.863Z,22.53
2019-02-23T17:40:44.122Z,23.33
2019-02-23T17:43:13.280Z,22.40
2019-02-23T17:45:42.550Z,23.53
2019-02-23T17:48:11.957Z,22.27
2019-02-23T17:50:41.262Z,25.53
2019-02-23T17:53:10.788Z,21.17
2019-02-23T17:55:40.104Z,26.57
2019-02-23T17:58:09.410Z,26.37
2019-02-23T18:00:38.653Z,23.93
2019-02-23T18:03:07.950Z,24.20
2019-02-23T18:05:37.192Z,21.43
2019-02-23T18:08:06.531Z,21.47
2019-02-23T18:10:35.770Z,20.90
2019-02-23T18:13:05.166Z,22.53
2019-02-23T18:15:34.447Z,20.50
2019-02-23T18:18:03.713Z,23.43
2019-02-23T18:20:33.013Z,26.00
2019-02-23T18:23:02.325Z,24.30
2019-02-23T18:25:31.589Z,25.30
2019-02-23T18:28:00.872Z,26.43
2019-02-23T18:30:30.134Z,21.97
2019-02-23T18:32:59.382Z,24.60
2019-02-23T18:35:28.613Z,24.10
2019-02-23T18:37:57.886Z,23.37
2019-02-23T18:40:27.237Z,22.70
2019-02-23T18:42:56.581Z,24.60
2019-02-23T18:45:27.319Z,23.10
2019-02-23T18:47:56.613Z,23.30
2019-02-23T18:50:25.854Z,24.50
2019-02-23T18:52:55.167Z,22.20
2019-02-23T18:55:24.449Z,22.63
2019-02-23T18:57:53.731Z,24.97
2019-02-23T19:00:24.583Z,22.90
2019-02-23T19:02:54.015Z,24.60
2019-02-23T19:05:23.283Z,25.00
2019-02-23T19:07:52.516Z,23.37
2019-02-23T19:10:21.759Z,21.67
2019-02-23T19:12:51.099Z,24.43
2019-02-23T19:15:21.344Z,25.10
2019-02-23T19:17:50.594Z,23.27
2019-02-23T19:20:19.875Z,22.53
2019-02-23T19:22:49.109Z,26.43
2019-02-23T19:25:18.385Z,25.80
2019-02-23T19:27:49.480Z,22.70
2019-02-23T19:30:18.853Z,25.27
2019-02-23T19:32:50.853Z,24.10
2019-02-23T19:35:21.046Z,24.20
2019-02-23T19:37:50.388Z,23.37
2019-02-23T19:40:19.659Z,24.63
2019-02-23T19:42:48.992Z,24.60
2019-02-23T19:45:18.312Z,23.93
2019-02-23T19:47:47.497Z,24.50
2019-02-23T19:50:22.910Z,23.23
2019-02-23T19:52:52.088Z,26.90
2019-02-23T19:55:21.269Z,22.13
2019-02-23T19:57:50.486Z,22.37
2019-02-23T20:00:19.744Z,25.33
2019-02-23T20:02:48.948Z,24.43
2019-02-23T20:05:18.184Z,25.17
2019-02-23T20:07:47.426Z,24.80
2019-02-23T20:10:16.726Z,29.07
2019-02-23T20:12:45.955Z,26.67
2019-02-23T20:15:15.383Z,25.43
2019-02-23T20:17:44.666Z,22.93
2019-02-23T20:20:14.042Z,23.63
2019-02-23T20:22:43.500Z,22.63
2019-02-23T20:25:12.898Z,24.90
2019-02-23T20:27:42.152Z,21.83
2019-02-23T20:30:12.439Z,27.07
2019-02-23T20:32:41.737Z,24.73
2019-02-23T20:35:10.967Z,21.80
2019-02-23T20:37:41.726Z,22.73
2019-02-23T20:40:11.029Z,23.83
2019-02-23T20:42:58.493Z,23.37
2019-02-23T20:45:27.777Z,25.53
2019-02-23T20:47:57.087Z,25.13
2019-02-23T20:50:26.423Z,27.33
2019-02-23T20:52:55.692Z,22.70
2019-02-23T20:55:24.923Z,23.93
2019-02-23T20:57:54.184Z,25.20
2019-02-23T21:00:23.523Z,23.57
2019-02-23T21:02:53.066Z,25.07
2019-02-23T21:05:22.298Z,26.63
2019-02-23T21:07:51.556Z,25.30
2019-02-23T21:10:30.819Z,26.97
2019-02-23T21:13:00.117Z,23.70
2019-02-23T21:15:29.478Z,22.17
2019-02-23T21:17:58.714Z,23.33
2019-02-23T21:20:28.086Z,23.17
2019-02-23T21:22:57.428Z,28.50
2019-02-23T21:25:26.658Z,22.93
2019-02-23T21:27:55.859Z,21.10
2019-02-23T21:30:25.084Z,21.07
2019-02-23T21:32:55.958Z,24.43
2019-02-23T21:35:25.145Z,25.47
2019-02-23T21:37:54.560Z,20.90
2019-02-23T21:40:23.826Z,22.10
2019-02-23T21:42:53.046Z,24.50
2019-02-23T21:45:22.248Z,23.03
2019-02-23T21:47:52.967Z,23.17
2019-02-23T21:50:22.178Z,24.30
2019-02-23T21:52:51.432Z,24.03
2019-02-23T21:55:20.671Z,21.27
2019-02-23T21:57:49.926Z,21.17
2019-02-23T22:00:19.207Z,21.03
2019-02-23T22:02:48.449Z,25.37
2019-02-23T22:05:17.737Z,20.47
2019-02-23T22:07:46.927Z,20.13
2019-02-23T22:10:16.163Z,22.07
2019-02-23T22:12:45.458Z,17.97
2019-02-23T22:15:14.648Z,20.77
2019-02-23T22:17:44.143Z,22.40
2019-02-23T22:20:13.376Z,23.73
2019-02-23T22:22:42.634Z,22.40
2019-02-23T22:25:11.794Z,21.07
2019-02-23T22:27:41.030Z,22.63
2019-02-23T22:30:11.781Z,28.03
2019-02-23T22:32:40.935Z,21.23
2019-02-23T22:35:10.228Z,23.00
2019-02-23T22:37:39.409Z,22.07
2019-02-23T22:40:08.591Z,22.83
2019-02-23T22:42:37.807Z,22.60
2019-02-23T22:45:08.348Z,21.27
2019-02-23T22:47:37.517Z,20.90
2019-02-23T22:50:08.470Z,20.40
2019-02-23T22:52:37.659Z,19.63
2019-02-23T22:55:06.982Z,18.97
2019-02-23T22:57:40.719Z,19.90
2019-02-23T23:00:10.602Z,21.03
2019-02-23T23:02:39.827Z,21.53
2019-02-23T23:05:09.091Z,18.23
2019-02-23T23:07:38.374Z,21.27
2019-02-23T23:10:08.328Z,22.63
2019-02-23T23:12:37.504Z,18.97
2019-02-23T23:15:07.966Z,19.27
2019-02-23T23:17:37.150Z,18.93
2019-02-23T23:20:08.097Z,18.77
2019-02-23T23:22:37.292Z,20.17
2019-02-23T23:25:07.411Z,22.23
2019-02-23T23:27:36.590Z,21.27
2019-02-23T23:30:08.028Z,19.83
2019-02-23T23:32:37.220Z,19.67
2019-02-23T23:35:06.467Z,20.27
2019-02-23T23:37:35.679Z,20.97
2019-02-23T23:40:05.897Z,17.87
2019-02-23T23:42:35.145Z,19.03
2019-02-23T23:45:05.802Z,19.53
2019-02-23T23:47:35.052Z,21.20
2019-02-23T23:50:05.724Z,17.97
2019-02-23T23:52:34.932Z,17.37
2019-02-23T23:55:04.578Z,20.07
2019-02-23T23:57:33.772Z,20.10
